^^
Datos históricos de la estación: Murcia-Puente Tocinos
Diario Informe para Marzo 24, 2019 Unidades:  Métrico    Inglés   Ambas
Diario Semanal Mensual Anual Configurable
  Máximo: Mínimo: Media:
Temperatura: 20.3 °C 8.9 °C 14.4 °C
Punto de rocio: 10.1 °C 3.9 °C 6.6 °C
Humedad: 87% 35% 63%
Velocidad viento: 16.1km/h 0.0km/h 7.4km/h
Racha viento: 29.6km/h - -
Viento- - SE
Presión: 1023.5 hPa 1019.8 hPa -
Precipitación: 0.0 mm    
Historical Graphs
 
 
Tabla de datos para Marzo 24, 2019
Hora Temperatura Punto de rocio Presión Viento Velocidad viento Racha viento Humedad Intensidad lluvia(por hora) Nubes
00:00 12.2 °C 9.9 °C 1023.0 hPa WNW 1.6 km/h 8.0 km/h 86% 0.0 mm RA
00:05 12.2 °C 10.1 °C 1022.9 hPa WNW 2.3 km/h 5.6 km/h 87% 0.0 mm RA
00:10 12.2 °C 10.1 °C 1022.9 hPa WNW 3.2 km/h 3.7 km/h 87% 0.0 mm CLR
00:15 12.2 °C 10.1 °C 1022.9 hPa WNW 3.2 km/h 3.7 km/h 87% 0.0 mm CLR
00:20 12.2 °C 9.9 °C 1022.9 hPa WNW 2.3 km/h 3.7 km/h 86% 0.0 mm CLR
00:25 12.2 °C 9.9 °C 1022.9 hPa WNW 2.3 km/h   86% 0.0 mm CLR
00:30 12.1 °C 9.8 °C 1022.9 hPa Calm     86% 0.0 mm CLR
00:35 12.2 °C 10.1 °C 1022.8 hPa Calm   3.7 km/h 87% 0.0 mm CLR
00:40 12.2 °C 9.9 °C 1022.8 hPa WNW 2.9 km/h 5.6 km/h 86% 0.0 mm CLR
00:45 12.2 °C 10.1 °C 1022.8 hPa WNW 2.9 km/h 7.4 km/h 87% 0.0 mm CLR
00:50 12.2 °C 9.9 °C 1022.9 hPa West 3.9 km/h 9.3 km/h 86% 0.0 mm CLR
00:55 12.2 °C 9.9 °C 1022.9 hPa West 3.9 km/h 3.9 km/h 86% 0.0 mm CLR
01:00 12.3 °C 10.0 °C 1022.9 hPa West 3.2 km/h 6.4 km/h 86% 0.0 mm CLR
01:04 12.4 °C 10.1 °C 1022.9 hPa West 3.9 km/h 7.4 km/h 86% 0.0 mm CLR
01:09 12.4 °C 10.1 °C 1022.9 hPa West 2.9 km/h 5.8 km/h 86% 0.0 mm CLR
01:14 12.5 °C 10.1 °C 1022.9 hPa NW 2.9 km/h 5.6 km/h 85% 0.0 mm CLR
01:19 12.4 °C 9.8 °C 1022.8 hPa NW 3.9 km/h 4.7 km/h 84% 0.0 mm CLR
01:24 12.3 °C 9.7 °C 1022.8 hPa NW 3.9 km/h   84% 0.0 mm CLR
01:29 12.2 °C 9.8 °C 1022.8 hPa East 2.3 km/h 7.4 km/h 85% 0.0 mm CLR
01:34 12.2 °C 9.8 °C 1022.6 hPa East 2.3 km/h   85% 0.0 mm CLR
01:39 12.1 °C 9.7 °C 1022.6 hPa East 2.3 km/h   85% 0.0 mm CLR
01:44 12.1 °C 9.7 °C 1022.6 hPa East 2.3 km/h 5.6 km/h 85% 0.0 mm CLR
01:49 11.9 °C 9.6 °C 1022.6 hPa East 2.9 km/h 3.2 km/h 86% 0.0 mm CLR
01:54 11.9 °C 9.6 °C 1022.6 hPa East 2.9 km/h 3.7 km/h 86% 0.0 mm CLR
01:59 11.9 °C 9.6 °C 1022.6 hPa East 2.3 km/h   86% 0.0 mm CLR
02:04 11.9 °C 9.6 °C 1022.6 hPa NW 2.3 km/h 6.4 km/h 86% 0.0 mm CLR
02:09 11.9 °C 9.4 °C 1022.6 hPa NW 2.9 km/h 3.7 km/h 85% 0.0 mm CLR
02:14 11.8 °C 9.3 °C 1022.6 hPa NW 2.9 km/h   85% 0.0 mm CLR
02:19 11.7 °C 9.3 °C 1022.6 hPa Calm   3.9 km/h 85% 0.0 mm CLR
02:24 11.6 °C 9.3 °C 1022.6 hPa Calm     86% 0.0 mm CLR
02:29 11.6 °C 9.3 °C 1022.6 hPa Calm   3.7 km/h 86% 0.0 mm CLR
02:34 11.5 °C 9.2 °C 1022.6 hPa Calm     86% 0.0 mm CLR
02:39 11.4 °C 9.2 °C 1022.6 hPa Calm     86% 0.0 mm CLR
02:44 11.4 °C 9.2 °C 1022.6 hPa Calm   3.7 km/h 86% 0.0 mm CLR
02:49 11.4 °C 9.2 °C 1022.5 hPa WNW 2.3 km/h 3.7 km/h 86% 0.0 mm CLR
02:54 11.4 °C 9.2 °C 1022.5 hPa WNW 2.3 km/h   86% 0.0 mm CLR
02:59 11.4 °C 9.3 °C 1022.5 hPa Calm     87% 0.0 mm CLR
03:04 11.4 °C 9.3 °C 1022.5 hPa Calm   6.9 km/h 87% 0.0 mm CLR
03:09 11.4 °C 9.2 °C 1022.5 hPa SSW 2.9 km/h 9.3 km/h 86% 0.0 mm CLR
03:14 11.4 °C 9.2 °C 1022.5 hPa SSE 2.9 km/h 8.4 km/h 86% 0.0 mm CLR
03:19 11.3 °C 9.1 °C 1022.3 hPa SSE 5.8 km/h 9.3 km/h 86% 0.0 mm CLR
03:24 11.2 °C 8.9 °C 1022.3 hPa South 5.8 km/h 9.3 km/h 86% 0.0 mm CLR
03:29 10.9 °C 8.5 °C 1022.3 hPa South 6.9 km/h 11.1 km/h 85% 0.0 mm CLR
03:34 10.8 °C 8.4 °C 1022.2 hPa South 6.9 km/h 10.0 km/h 85% 0.0 mm CLR
03:39 10.6 °C 8.2 °C 1022.2 hPa South 7.6 km/h 9.3 km/h 85% 0.0 mm CLR
03:44 10.4 °C 8.0 °C 1022.2 hPa SSE 7.6 km/h 13.0 km/h 85% 0.0 mm CLR
03:49 10.3 °C 7.9 °C 1022.2 hPa SSW 8.7 km/h 13.0 km/h 85% 0.0 mm CLR
03:54 10.2 °C 7.8 °C 1022.2 hPa SSW 8.7 km/h 14.8 km/h 85% 0.0 mm CLR
03:59 10.1 °C 7.7 °C 1022.2 hPa SW 9.5 km/h 13.0 km/h 85% 0.0 mm CLR
04:04 10.0 °C 7.6 °C 1022.1 hPa SSW 9.5 km/h 16.7 km/h 85% 0.0 mm CLR
04:09 9.9 °C 7.5 °C 1022.1 hPa SSW 10.0 km/h 13.0 km/h 85% 0.0 mm CLR
04:14 9.9 °C 7.5 °C 1022.1 hPa SSW 10.0 km/h 14.0 km/h 85% 0.0 mm CLR
04:19 10.0 °C 7.6 °C 1022.2 hPa SSW 8.7 km/h 9.3 km/h 85% 0.0 mm CLR
04:24 10.0 °C 7.6 °C 1022.2 hPa South 8.7 km/h 9.3 km/h 85% 0.0 mm CLR
04:29 10.1 °C 7.5 °C 1022.2 hPa SSW 6.4 km/h 10.0 km/h 84% 0.0 mm CLR
04:34 10.1 °C 7.5 °C 1022.1 hPa SSW 6.4 km/h 9.3 km/h 84% 0.0 mm CLR
04:39 10.1 °C 7.5 °C 1022.1 hPa SSW 6.9 km/h 9.3 km/h 84% 0.0 mm CLR
04:44 10.1 °C 7.5 °C 1022.1 hPa South 6.9 km/h 11.1 km/h 84% 0.0 mm CLR
04:49 10.1 °C 7.5 °C 1022.2 hPa South 6.9 km/h 13.0 km/h 84% 0.0 mm CLR
04:54 10.2 °C 7.6 °C 1022.2 hPa SW 6.9 km/h 9.3 km/h 84% 0.0 mm CLR
04:59 10.1 °C 7.5 °C 1022.2 hPa SSW 7.6 km/h 7.4 km/h 84% 0.0 mm CLR
05:04 10.2 °C 7.6 °C 1022.1 hPa SSW 7.6 km/h 11.1 km/h 84% 0.0 mm CLR
05:09 10.1 °C 7.5 °C 1022.1 hPa SSW 6.4 km/h 9.5 km/h 84% 0.0 mm CLR
05:14 10.1 °C 7.5 °C 1022.1 hPa SSW 6.4 km/h 9.3 km/h 84% 0.0 mm CLR
05:19 10.1 °C 7.5 °C 1022.3 hPa SW 6.9 km/h 9.3 km/h 84% 0.0 mm CLR
05:24 10.0 °C 7.4 °C 1022.3 hPa SW 6.9 km/h 9.3 km/h 84% 0.0 mm CLR
05:29 10.1 °C 7.5 °C 1022.3 hPa SSW 6.9 km/h 9.3 km/h 84% 0.0 mm CLR
05:34 10.1 °C 7.5 °C 1022.2 hPa SSW 6.9 km/h 9.5 km/h 84% 0.0 mm CLR
05:39 10.1 °C 7.5 °C 1022.2 hPa SW 6.9 km/h 8.4 km/h 84% 0.0 mm CLR
05:44 10.1 °C 7.5 °C 1022.2 hPa SW 6.9 km/h 7.4 km/h 84% 0.0 mm CLR
05:49 10.1 °C 7.5 °C 1022.3 hPa SW 6.4 km/h 11.1 km/h 84% 0.0 mm CLR
05:54 10.2 °C 7.4 °C 1022.3 hPa SW 6.4 km/h 9.3 km/h 83% 0.0 mm CLR
05:59 10.2 °C 7.4 °C 1022.3 hPa SW 6.9 km/h 9.3 km/h 83% 0.0 mm CLR
06:04 10.2 °C 7.3 °C 1022.4 hPa SW 6.9 km/h 11.1 km/h 82% 0.0 mm CLR
06:09 10.2 °C 7.3 °C 1022.4 hPa South 8.4 km/h 11.1 km/h 82% 0.0 mm CLR
06:14 10.3 °C 7.3 °C 1022.4 hPa SW 8.4 km/h 7.4 km/h 82% 0.0 mm CLR
06:19 10.2 °C 7.3 °C 1022.3 hPa SSW 6.4 km/h 9.3 km/h 82% 0.0 mm CLR
06:24 10.2 °C 7.3 °C 1022.3 hPa SSW 6.4 km/h 5.6 km/h 82% 0.0 mm CLR
06:29 10.2 °C 7.1 °C 1022.3 hPa WSW 5.0 km/h 8.4 km/h 81% 0.0 mm CLR
06:34 10.1 °C 7.0 °C 1022.4 hPa SSW 5.0 km/h 5.6 km/h 81% 0.0 mm CLR
06:39 9.9 °C 6.8 °C 1022.4 hPa SSW 4.7 km/h 8.4 km/h 81% 0.0 mm CLR
06:44 9.7 °C 6.8 °C 1022.4 hPa SSW 4.7 km/h 7.4 km/h 82% 0.0 mm CLR
06:49 9.7 °C 6.8 °C 1022.5 hPa South 5.8 km/h 7.4 km/h 82% 0.0 mm CLR
06:54 9.4 °C 6.5 °C 1022.5 hPa South 5.8 km/h 11.1 km/h 82% 0.0 mm CLR
06:59 9.3 °C 6.6 °C 1022.5 hPa SSW 6.9 km/h 8.4 km/h 83% 0.0 mm CLR
07:04 9.2 °C 6.4 °C 1022.5 hPa SSW 6.9 km/h 7.4 km/h 83% 0.0 mm CLR
07:09 9.2 °C 6.4 °C 1022.5 hPa South 5.0 km/h 8.7 km/h 83% 0.0 mm CLR
07:14 9.1 °C 6.4 °C 1022.5 hPa South 5.0 km/h 11.1 km/h 83% 0.0 mm CLR
07:19 9.1 °C 6.4 °C 1022.7 hPa South 6.9 km/h 9.3 km/h 83% 0.0 mm CLR
07:24 9.0 °C 6.3 °C 1022.7 hPa SSW 6.9 km/h 11.1 km/h 83% 0.0 mm CLR
07:29 8.9 °C 6.2 °C 1022.7 hPa SSE 6.4 km/h 10.0 km/h 83% 0.0 mm CLR
07:34 8.9 °C 6.2 °C 1022.8 hPa South 6.4 km/h 9.3 km/h 83% 0.0 mm CLR
07:39 8.9 °C 6.2 °C 1022.8 hPa SSW 6.9 km/h 7.4 km/h 83% 0.0 mm CLR
07:44 9.1 °C 6.4 °C 1022.8 hPa SW 6.9 km/h 6.9 km/h 83% 0.0 mm CLR
07:49 9.2 °C 6.4 °C 1023.0 hPa WSW 5.8 km/h 7.4 km/h 83% 0.0 mm CLR
07:54 9.3 °C 6.4 °C 1023.0 hPa WSW 5.8 km/h 7.4 km/h 82% 0.0 mm CLR
07:59 9.4 °C 6.3 °C 1023.0 hPa WSW 5.0 km/h 7.6 km/h 81% 0.0 mm CLR
08:04 9.6 °C 6.3 °C 1022.8 hPa WSW 5.0 km/h 9.3 km/h 80% 0.0 mm CLR
08:09 9.7 °C 6.4 °C 1022.8 hPa WSW 5.8 km/h 7.4 km/h 80% 0.0 mm CLR
08:14 9.8 °C 6.3 °C 1022.8 hPa SW 5.8 km/h 9.3 km/h 79% 0.0 mm CLR
08:19 10.0 °C 6.5 °C 1022.9 hPa SSW 5.0 km/h 11.1 km/h 79% 0.0 mm CLR
08:24 10.2 °C 6.6 °C 1022.9 hPa SSW 5.0 km/h 8.7 km/h 78% 0.0 mm CLR
08:29 10.3 °C 6.4 °C 1022.9 hPa SSW 6.9 km/h 7.4 km/h 77% 0.0 mm CLR
08:34 10.4 °C 6.6 °C 1023.0 hPa SSW 6.9 km/h 9.5 km/h 77% 0.0 mm CLR
08:39 10.4 °C 6.3 °C 1023.0 hPa WSW 6.4 km/h 13.0 km/h 76% 0.0 mm CLR
08:44 10.5 °C 6.4 °C 1023.0 hPa South 6.4 km/h 9.5 km/h 76% 0.0 mm CLR
08:49 10.7 °C 6.7 °C 1023.1 hPa SSW 6.4 km/h 13.0 km/h 76% 0.0 mm CLR
08:54 10.8 °C 6.7 °C 1023.1 hPa SSW 6.4 km/h 10.0 km/h 76% 0.0 mm CLR
08:59 10.9 °C 6.7 °C 1023.1 hPa South 8.7 km/h 10.0 km/h 75% 0.0 mm CLR
09:04 11.0 °C 6.7 °C 1023.1 hPa South 8.7 km/h 11.1 km/h 75% 0.0 mm CLR
09:09 11.1 °C 6.8 °C 1023.1 hPa SSW 8.7 km/h 12.2 km/h 75% 0.0 mm CLR
09:14 11.3 °C 6.8 °C 1023.1 hPa SSW 8.7 km/h 13.0 km/h 74% 0.0 mm CLR
09:19 11.5 °C 7.0 °C 1023.2 hPa SSW 8.7 km/h 11.1 km/h 74% 0.0 mm CLR
09:24 11.7 °C 7.0 °C 1023.2 hPa SW 8.7 km/h 11.1 km/h 73% 0.0 mm CLR
09:29 11.8 °C 6.9 °C 1023.2 hPa SW 7.6 km/h 13.0 km/h 72% 0.0 mm CLR
09:34 11.9 °C 6.8 °C 1023.3 hPa SW 7.6 km/h 13.0 km/h 71% 0.0 mm CLR
09:39 11.9 °C 6.8 °C 1023.3 hPa SW 8.4 km/h 13.0 km/h 71% 0.0 mm CLR
09:44 11.9 °C 7.0 °C 1023.3 hPa SSW 8.4 km/h 14.8 km/h 72% 0.0 mm CLR
09:49 12.0 °C 6.9 °C 1023.5 hPa SSW 9.5 km/h 13.7 km/h 71% 0.0 mm CLR
09:54 12.0 °C 6.9 °C 1023.5 hPa SSW 9.5 km/h 16.7 km/h 71% 0.0 mm CLR
09:59 12.1 °C 7.0 °C 1023.5 hPa South 10.3 km/h 11.1 km/h 71% 0.0 mm CLR
10:04 12.1 °C 6.8 °C 1023.5 hPa SSW 10.3 km/h 13.0 km/h 70% 0.0 mm CLR
10:09 12.2 °C 6.9 °C 1023.5 hPa SSW 10.0 km/h 13.0 km/h 70% 0.0 mm CLR
10:14 12.4 °C 6.9 °C 1023.5 hPa SSW 10.0 km/h 14.0 km/h 69% 0.0 mm CLR
10:19 12.6 °C 6.8 °C 1023.5 hPa South 9.5 km/h 11.1 km/h 68% 0.0 mm CLR
10:24 12.7 °C 6.7 °C 1023.5 hPa SSW 9.5 km/h 13.0 km/h 67% 0.0 mm CLR
10:29 12.8 °C 6.8 °C 1023.5 hPa South 8.7 km/h 13.0 km/h 67% 0.0 mm CLR
10:34 13.0 °C 6.8 °C 1023.5 hPa SW 8.7 km/h 9.3 km/h 66% 0.0 mm CLR
10:39 13.1 °C 6.9 °C 1023.5 hPa South 6.4 km/h 7.4 km/h 66% 0.0 mm CLR
10:44 13.2 °C 6.8 °C 1023.5 hPa SSW 6.4 km/h 10.0 km/h 65% 0.0 mm CLR
10:49 13.4 °C 6.9 °C 1023.5 hPa South 6.4 km/h 9.3 km/h 65% 0.0 mm CLR
10:54 13.7 °C 6.8 °C 1023.5 hPa SSW 6.4 km/h 13.0 km/h 63% 0.0 mm CLR
10:59 13.8 °C 7.1 °C 1023.5 hPa South 8.7 km/h 9.5 km/h 64% 0.0 mm CLR
11:04 14.3 °C 7.1 °C 1023.4 hPa SSW 8.7 km/h 7.4 km/h 62% 0.0 mm CLR
11:09 14.7 °C 7.3 °C 1023.4 hPa SSW 5.0 km/h 7.4 km/h 61% 0.0 mm CLR
11:14 14.9 °C 7.2 °C 1023.4 hPa SSW 5.0 km/h 9.3 km/h 60% 0.0 mm CLR
11:19 15.2 °C 7.5 °C 1023.1 hPa South 5.0 km/h 5.0 km/h 60% 0.0 mm CLR
11:24 15.7 °C 7.4 °C 1023.1 hPa SE 5.0 km/h 3.9 km/h 58% 0.0 mm CLR
11:29 16.2 °C 7.4 °C 1023.1 hPa SE 2.3 km/h 5.6 km/h 56% 0.0 mm CLR
11:34 16.4 °C 7.3 °C 1023.1 hPa SW 2.3 km/h 3.7 km/h 55% 0.0 mm CLR
11:39 16.6 °C 7.5 °C 1023.1 hPa NE 3.2 km/h 9.3 km/h 55% 0.0 mm CLR
11:44 16.7 °C 7.6 °C 1023.1 hPa NE 3.2 km/h 3.9 km/h 55% 0.0 mm CLR
11:49 16.9 °C 7.5 °C 1022.9 hPa NE 3.2 km/h 9.5 km/h 54% 0.0 mm CLR
11:54 16.9 °C 7.5 °C 1022.9 hPa NE 3.2 km/h 14.0 km/h 54% 0.0 mm CLR
11:59 16.8 °C 7.7 °C 1022.9 hPa NE 7.6 km/h 13.0 km/h 55% 0.0 mm CLR
12:04 16.9 °C 7.5 °C 1022.8 hPa NE 7.6 km/h 13.0 km/h 54% 0.0 mm CLR
12:09 17.3 °C 7.6 °C 1022.8 hPa NNE 7.6 km/h 13.0 km/h 53% 0.0 mm CLR
12:14 17.4 °C 7.4 °C 1022.8 hPa ENE 7.6 km/h 22.2 km/h 52% 0.0 mm CLR
12:19 17.6 °C 7.6 °C 1022.4 hPa NE 11.1 km/h 18.5 km/h 52% 0.0 mm CLR
12:24 17.9 °C 7.3 °C 1022.4 hPa ENE 11.1 km/h 27.8 km/h 50% 0.0 mm CLR
12:29 17.9 °C 7.6 °C 1022.4 hPa ENE 12.2 km/h 16.7 km/h 51% 0.0 mm CLR
12:34 18.0 °C 7.4 °C 1022.2 hPa North 12.2 km/h 22.2 km/h 50% 0.0 mm CLR
12:39 17.9 °C 7.3 °C 1022.2 hPa NE 14.0 km/h 25.9 km/h 50% 0.0 mm CLR
12:45 18.3 °C 7.7 °C 1022.2 hPa NE 14.0 km/h 20.4 km/h 50% 0.0 mm CLR
12:49 18.4 °C 6.9 °C 1022.0 hPa NNE 11.1 km/h 24.1 km/h 47% 0.0 mm CLR
12:54 18.5 °C 6.9 °C 1022.0 hPa NNE 11.1 km/h 29.6 km/h 47% 0.0 mm CLR
12:59 18.5 °C 6.9 °C 1022.0 hPa NNE 16.1 km/h 27.0 km/h 47% 0.0 mm CLR
13:04 18.7 °C 7.2 °C 1021.8 hPa NE 16.1 km/h 25.9 km/h 47% 0.0 mm CLR
13:09 18.7 °C 7.4 °C 1021.8 hPa NE 13.7 km/h 20.4 km/h 48% 0.0 mm CLR
13:14 18.7 °C 7.2 °C 1021.8 hPa NE 13.7 km/h 11.1 km/h 47% 0.0 mm CLR
13:19 18.8 °C 7.6 °C 1021.7 hPa NNE 10.3 km/h 16.1 km/h 48% 0.0 mm CLR
13:25 18.8 °C 7.6 °C 1021.7 hPa NNE 11.3 km/h 24.1 km/h 48% 0.0 mm CLR
13:29 18.9 °C 7.7 °C 1021.7 hPa NE 13.0 km/h 18.5 km/h 48% 0.0 mm CLR
13:34 19.0 °C 7.1 °C 1021.4 hPa NNE 13.0 km/h 16.7 km/h 46% 0.0 mm CLR
13:39 19.2 °C 6.9 °C 1021.4 hPa NE 10.3 km/h 22.2 km/h 45% 0.0 mm CLR
13:44 19.3 °C 6.1 °C 1021.4 hPa East 10.3 km/h 24.1 km/h 42% 0.0 mm CLR
13:49 19.6 °C 6.3 °C 1021.3 hPa NE 12.2 km/h 16.7 km/h 42% 0.0 mm CLR
13:55 19.7 °C 6.1 °C 1021.3 hPa ENE 12.9 km/h 20.9 km/h 41% 0.0 mm CLR
13:59 19.7 °C 6.1 °C 1021.3 hPa NE 11.9 km/h 18.5 km/h 41% 0.0 mm CLR
14:04 19.7 °C 6.1 °C 1021.1 hPa NE 11.9 km/h 18.5 km/h 41% 0.0 mm CLR
14:09 19.7 °C 6.1 °C 1021.1 hPa NE 13.0 km/h 23.7 km/h 41% 0.0 mm CLR
14:14 19.7 °C 6.1 °C 1021.1 hPa NE 13.0 km/h 27.8 km/h 41% 0.0 mm CLR
14:19 19.6 °C 6.0 °C 1021.1 hPa NE 15.6 km/h 24.1 km/h 41% 0.0 mm CLR
14:24 19.6 °C 5.6 °C 1021.1 hPa NNE 15.6 km/h 27.8 km/h 40% 0.0 mm CLR
14:29 19.5 °C 5.9 °C 1021.1 hPa NE 15.6 km/h 16.7 km/h 41% 0.0 mm CLR
14:34 19.5 °C 5.9 °C 1020.9 hPa East 15.6 km/h 22.2 km/h 41% 0.0 mm CLR
14:39 19.4 °C 5.1 °C 1020.9 hPa NE 13.0 km/h 21.7 km/h 39% 0.0 mm CLR
14:44 19.3 °C 5.3 °C 1020.9 hPa ENE 13.0 km/h 16.7 km/h 40% 0.0 mm CLR
14:49 19.4 °C 5.1 °C 1020.7 hPa ENE 12.2 km/h 24.1 km/h 39% 0.0 mm CLR
14:54 19.6 °C 5.3 °C 1020.7 hPa NE 12.2 km/h 18.5 km/h 39% 0.0 mm CLR
14:59 19.8 °C 5.4 °C 1020.7 hPa NE 13.7 km/h 20.4 km/h 39% 0.0 mm CLR
15:04 20.1 °C 5.7 °C 1020.6 hPa ESE 13.7 km/h 18.5 km/h 39% 0.0 mm CLR
15:09 20.3 °C 5.1 °C 1020.6 hPa ENE 10.0 km/h 16.7 km/h 37% 0.0 mm CLR
15:15 20.2 °C 5.1 °C 1020.6 hPa ENE 9.7 km/h 22.5 km/h 37% 0.0 mm CLR
15:19 20.1 °C 4.6 °C 1020.5 hPa NE 11.9 km/h 19.0 km/h 36% 0.0 mm CLR
15:25 19.9 °C 4.4 °C 1020.5 hPa NE 11.9 km/h 27.8 km/h 36% 0.0 mm CLR
15:29 19.7 °C 4.6 °C 1020.5 hPa NE 15.6 km/h 20.4 km/h 37% 0.0 mm CLR
15:34 19.8 °C 4.7 °C 1020.5 hPa NE 15.6 km/h 25.9 km/h 37% 0.0 mm CLR
15:39 19.9 °C 4.4 °C 1020.5 hPa NE 11.9 km/h 16.4 km/h 36% 0.0 mm CLR
15:45 20.1 °C 4.6 °C 1020.5 hPa NE 11.9 km/h 25.9 km/h 36% 0.0 mm CLR
15:49 20.0 °C 4.4 °C 1020.3 hPa East 14.0 km/h 22.2 km/h 36% 0.0 mm CLR
15:54 20.1 °C 4.6 °C 1020.3 hPa NE 14.0 km/h 19.0 km/h 36% 0.0 mm CLR
15:59 20.1 °C 4.9 °C 1020.3 hPa NE 14.0 km/h 14.8 km/h 37% 0.0 mm CLR
16:05 20.2 °C 4.7 °C 1020.2 hPa NE 14.5 km/h 20.9 km/h 36% 0.0 mm CLR
16:09 20.2 °C 4.2 °C 1020.2 hPa East 11.9 km/h 14.8 km/h 35% 0.0 mm CLR
16:14 20.1 °C 4.2 °C 1020.2 hPa NE 11.9 km/h 24.1 km/h 35% 0.0 mm CLR
16:19 19.9 °C 4.4 °C 1020.1 hPa NE 14.8 km/h 16.7 km/h 36% 0.0 mm CLR
16:24 20.1 °C 4.2 °C 1020.1 hPa NE 14.8 km/h 24.1 km/h 35% 0.0 mm CLR
16:29 20.0 °C 4.1 °C 1020.1 hPa NE 15.6 km/h 16.7 km/h 35% 0.0 mm CLR
16:35 19.9 °C 4.0 °C 1019.8 hPa NE 14.5 km/h 25.7 km/h 35% 0.0 mm CLR
16:39 19.9 °C 4.0 °C 1019.8 hPa NE 15.6 km/h 18.5 km/h 35% 0.0 mm CLR
16:44 19.9 °C 4.4 °C 1019.8 hPa NNE 15.6 km/h 25.9 km/h 36% 0.0 mm CLR
16:49 20.0 °C 4.1 °C 1019.8 hPa NE 15.6 km/h 19.0 km/h 35% 0.0 mm CLR
16:54 19.9 °C 4.4 °C 1019.8 hPa NE 15.6 km/h 25.9 km/h 36% 0.0 mm CLR
16:59 19.7 °C 4.2 °C 1019.8 hPa North 14.8 km/h 27.8 km/h 36% 0.0 mm CLR
17:04 19.7 °C 4.2 °C 1019.8 hPa East 14.8 km/h 16.7 km/h 36% 0.0 mm CLR
17:09 19.8 °C 4.7 °C 1019.8 hPa ENE 14.8 km/h 16.7 km/h 37% 0.0 mm CLR
17:15 19.7 °C 4.2 °C 1019.8 hPa NE 14.5 km/h 29.0 km/h 36% 0.0 mm CLR
17:20 19.6 °C 4.1 °C 1019.8 hPa ENE 14.8 km/h 22.2 km/h 36% 0.0 mm CLR
17:24 19.4 °C 3.9 °C 1019.8 hPa East 14.8 km/h 22.2 km/h 36% 0.0 mm CLR
17:29 19.4 °C 4.3 °C 1019.8 hPa NE 14.0 km/h 18.5 km/h 37% 0.0 mm CLR
17:34 19.3 °C 4.2 °C 1019.9 hPa NNE 14.0 km/h 18.5 km/h 37% 0.0 mm CLR
17:40 19.2 °C 4.5 °C 1019.9 hPa NE 12.2 km/h 24.1 km/h 38% 0.0 mm CLR
17:45 19.0 °C 4.7 °C 1019.9 hPa NE 12.9 km/h 20.9 km/h 39% 0.0 mm CLR
17:49 18.9 °C 5.0 °C 1019.9 hPa NNE 13.0 km/h 19.0 km/h 40% 0.0 mm CLR
17:54 18.9 °C 5.0 °C 1019.9 hPa NE 13.0 km/h 18.5 km/h 40% 0.0 mm CLR
17:59 19.0 °C 5.1 °C 1019.9 hPa NE 12.2 km/h 20.4 km/h 40% 0.0 mm CLR
18:05 19.1 °C 4.7 °C 1019.9 hPa NE 12.9 km/h 19.3 km/h 39% 0.0 mm CLR
18:09 18.9 °C 4.3 °C 1019.9 hPa NE 10.3 km/h 20.4 km/h 38% 0.0 mm CLR
18:15 18.9 °C 4.3 °C 1019.9 hPa NE 10.3 km/h 20.4 km/h 38% 0.0 mm CLR
18:19 18.7 °C 4.1 °C 1019.9 hPa ENE 13.7 km/h 18.5 km/h 38% 0.0 mm CLR
18:24 18.7 °C 4.1 °C 1019.9 hPa NE 13.7 km/h 18.5 km/h 38% 0.0 mm CLR
18:29 18.5 °C 4.3 °C 1019.9 hPa NE 13.0 km/h 18.5 km/h 39% 0.0 mm CLR
18:34 18.5 °C 4.3 °C 1020.0 hPa NNE 13.0 km/h 16.7 km/h 39% 0.0 mm CLR
18:39 18.3 °C 4.4 °C 1020.0 hPa East 11.9 km/h 20.4 km/h 40% 0.0 mm CLR
18:44 18.2 °C 4.4 °C 1020.0 hPa NE 11.9 km/h 14.8 km/h 40% 0.0 mm CLR
18:50 18.1 °C 4.6 °C 1020.1 hPa NE 12.9 km/h 19.3 km/h 41% 0.0 mm CLR
18:55 18.0 °C 4.5 °C 1020.1 hPa NE 12.9 km/h 19.3 km/h 41% 0.0 mm CLR
19:00 17.9 °C 4.8 °C 1020.1 hPa NE 11.3 km/h 16.1 km/h 42% 0.0 mm CLR
19:04 17.8 °C 4.7 °C 1020.0 hPa NNE 11.1 km/h 13.0 km/h 42% 0.0 mm CLR
19:09 17.6 °C 4.9 °C 1020.0 hPa NE 8.7 km/h 13.7 km/h 43% 0.0 mm CLR
19:15 17.5 °C 4.8 °C 1020.0 hPa NE 9.7 km/h 16.1 km/h 43% 0.0 mm CLR
19:19 17.4 °C 5.0 °C 1020.1 hPa NNE 9.5 km/h 11.1 km/h 44% 0.0 mm CLR
19:25 17.3 °C 4.9 °C 1020.1 hPa NNE 9.5 km/h 11.1 km/h 44% 0.0 mm CLR
19:29 17.2 °C 5.2 °C 1020.1 hPa NE 7.6 km/h 8.4 km/h 45% 0.0 mm CLR
19:35 17.1 °C 5.1 °C 1020.1 hPa NE 8.0 km/h 11.3 km/h 45% 0.0 mm CLR
19:39 16.9 °C 5.2 °C 1020.1 hPa NNE 6.4 km/h 9.3 km/h 46% 0.0 mm CLR
19:45 16.8 °C 5.4 °C 1020.1 hPa ENE 8.0 km/h 9.7 km/h 47% 0.0 mm CLR
19:49 16.7 °C 5.3 °C 1020.0 hPa NE 5.8 km/h 7.4 km/h 47% 0.0 mm CLR
19:55 16.6 °C 5.6 °C 1020.0 hPa NNE 5.8 km/h 8.4 km/h 48% 0.0 mm CLR
19:59 16.5 °C 5.4 °C 1020.0 hPa NE 5.8 km/h 7.4 km/h 48% 0.0 mm CLR
20:05 16.4 °C 5.3 °C 1020.1 hPa NE 5.8 km/h 11.1 km/h 48% 0.0 mm CLR
20:09 16.3 °C 5.3 °C 1020.1 hPa NE 6.9 km/h 9.3 km/h 48% 0.0 mm CLR
20:14 16.2 °C 5.4 °C 1020.1 hPa NE 6.9 km/h 13.0 km/h 49% 0.0 mm CLR
20:19 16.2 °C 5.4 °C 1020.2 hPa NE 7.6 km/h 9.5 km/h 49% 0.0 mm CLR
20:25 16.1 °C 5.4 °C 1020.2 hPa NE 7.6 km/h 11.1 km/h 49% 0.0 mm CLR
20:29 16.1 °C 5.4 °C 1020.2 hPa NE 7.6 km/h 9.3 km/h 49% 0.0 mm CLR
20:34 16.0 °C 5.6 °C 1020.3 hPa NE 7.6 km/h 9.3 km/h 50% 0.0 mm CLR
20:39 15.9 °C 5.5 °C 1020.3 hPa NE 6.4 km/h 7.6 km/h 50% 0.0 mm CLR
20:45 15.8 °C 5.4 °C 1020.3 hPa NE 6.4 km/h 7.4 km/h 50% 0.0 mm CLR
20:50 15.7 °C 5.6 °C 1020.3 hPa NE 8.0 km/h 9.7 km/h 51% 0.0 mm CLR
20:54 15.6 °C 5.5 °C 1020.3 hPa ENE 6.4 km/h 3.9 km/h 51% 0.0 mm CLR
21:00 15.6 °C 5.5 °C 1020.3 hPa NE 4.8 km/h 8.0 km/h 51% 0.0 mm CLR
21:04 15.6 °C 5.5 °C 1020.5 hPa ENE 5.0 km/h 3.9 km/h 51% 0.0 mm CLR
21:09 15.6 °C 5.5 °C 1020.5 hPa ENE 2.9 km/h 4.7 km/h 51% 0.0 mm CLR
21:14 15.6 °C 5.5 °C 1020.5 hPa ENE 2.9 km/h 5.6 km/h 51% 0.0 mm CLR
21:19 15.6 °C 5.8 °C 1020.7 hPa ENE 2.9 km/h 3.9 km/h 52% 0.0 mm CLR
21:24 15.4 °C 5.6 °C 1020.7 hPa ENE 2.9 km/h 4.7 km/h 52% 0.0 mm CLR
21:29 15.3 °C 5.8 °C 1020.7 hPa NE 2.9 km/h 5.6 km/h 53% 0.0 mm CLR
21:35 15.1 °C 5.8 °C 1020.7 hPa NE 2.9 km/h 3.7 km/h 54% 0.0 mm CLR
21:39 14.9 °C 5.7 °C 1020.7 hPa NE 2.9 km/h 5.6 km/h 54% 0.0 mm CLR
21:45 14.9 °C 5.9 °C 1020.7 hPa NE 3.2 km/h 8.0 km/h 55% 0.0 mm CLR
21:49 14.8 °C 5.8 °C 1020.9 hPa NW 3.2 km/h 3.7 km/h 55% 0.0 mm CLR
21:54 14.6 °C 5.9 °C 1020.9 hPa NW 3.2 km/h 3.7 km/h 56% 0.0 mm CLR
22:00 14.6 °C 5.9 °C 1020.9 hPa NW 1.6 km/h   56% 0.0 mm CLR
22:05 14.4 °C 5.7 °C 1021.0 hPa NW 1.6 km/h   56% 0.0 mm CLR
22:09 14.3 °C 5.6 °C 1021.0 hPa Calm     56% 0.0 mm CLR
22:15 14.3 °C 5.6 °C 1021.0 hPa Calm   3.2 km/h 56% 0.0 mm CLR
22:19 14.2 °C 5.8 °C 1020.9 hPa Calm     57% 0.0 mm CLR
22:25 14.1 °C 5.7 °C 1020.9 hPa Calm     57% 0.0 mm CLR
22:29 14.0 °C 5.6 °C 1020.9 hPa Calm     57% 0.0 mm CLR
22:35 13.9 °C 5.8 °C 1020.9 hPa Calm   5.6 km/h 58% 0.0 mm CLR
22:39 13.9 °C 5.8 °C 1020.9 hPa SSE 2.3 km/h 5.6 km/h 58% 0.0 mm CLR
22:45 13.9 °C 6.0 °C 1020.9 hPa South 1.6 km/h 3.2 km/h 59% 0.0 mm CLR
22:49 13.8 °C 5.7 °C 1020.9 hPa SSE 2.3 km/h 3.7 km/h 58% 0.0 mm CLR
22:55 13.8 °C 5.4 °C 1020.9 hPa SSE 1.6 km/h 4.8 km/h 57% 0.0 mm CLR
23:00 13.8 °C 4.9 °C 1020.9 hPa SSE 3.2 km/h 8.0 km/h 55% 0.0 mm CLR
23:04 13.7 °C 4.8 °C 1021.0 hPa SSE 2.9 km/h 3.7 km/h 55% 0.0 mm CLR
23:10 13.6 °C 4.7 °C 1021.0 hPa SSE 2.3 km/h   55% 0.0 mm CLR
23:15 13.6 °C 5.2 °C 1021.0 hPa SSE 1.6 km/h   57% 0.0 mm CLR
23:20 13.5 °C 5.4 °C 1020.9 hPa Calm     58% 0.0 mm CLR
23:25 13.4 °C 5.6 °C 1020.9 hPa Calm     59% 0.0 mm CLR
23:30 13.3 °C 5.4 °C 1020.9 hPa Calm   6.4 km/h 59% 0.0 mm CLR
23:35 13.1 °C 5.5 °C 1020.9 hPa Calm   5.6 km/h 60% 0.0 mm CLR
23:39 12.9 °C 5.3 °C 1020.9 hPa SSE 2.9 km/h   60% 0.0 mm CLR
23:45 12.8 °C 5.5 °C 1020.9 hPa SSE 3.2 km/h   61% 0.0 mm CLR
23:49 12.8 °C 5.7 °C 1020.9 hPa Calm   3.2 km/h 62% 0.0 mm CLR
23:55 12.7 °C 5.6 °C 1020.9 hPa Calm   3.2 km/h 62% 0.0 mm CLR
23:59 12.7 °C 5.6 °C 1020.9 hPa Calm     62% 0.0 mm CLR
Murcia-Puente Tocinos, España
Compliments of Weather Underground - 2.75 mb

La estación de MeteoMurcia.com, publica sus datos en los siguientes proyectos:

Weather Underground PWS IMURCIAP2 Meteoclimatic www.awekas.at

W3Counter
Web Analytics